Time;durP1;ratioP1;P1;durP2;ratioP2;P2;SDS_P1;SDS_P2;PMS_P1;PMS_P2;Temp;Humidity;BMP_temperature;BMP_pressure;BME280_temperature;BME280_humidity;BME280_pressure;Samples;Min_cycle;Max_cycle;Signal;HPM_P1;HPM_P2
2022/03/29 00:01:15;;;;;;;0.00;0.00;;;;;;;;;;6151156;23;20009;-58
2022/03/29 00:03:40;;;;;;;0.00;0.00;;;;;;;;;;6152825;23;20221;-58
2022/03/29 00:06:06;;;;;;;0.00;0.00;;;;;;;;;;6152179;23;20738;-59
2022/03/29 00:08:31;;;;;;;0.00;0.00;;;;;;;;;;6153112;23;20016;-58
2022/03/29 00:10:56;;;;;;;0.00;0.00;;;;;;;;;;6151678;23;20002;-58
2022/03/29 00:13:22;;;;;;;0.00;0.00;;;;;;;;;;6152390;23;20065;-58
2022/03/29 00:15:47;;;;;;;0.00;0.00;;;;;;;;;;6152791;23;20002;-58
2022/03/29 00:18:12;;;;;;;0.00;0.00;;;;;;;;;;6152374;23;20371;-59
2022/03/29 00:20:38;;;;;;;0.00;0.00;;;;;;;;;;6153202;23;20009;-59
2022/03/29 00:23:03;;;;;;;0.00;0.00;;;;;;;;;;6152735;23;20009;-59
2022/03/29 00:25:29;;;;;;;0.00;0.00;;;;;;;;;;6153113;23;20002;-58
2022/03/29 00:27:54;;;;;;;0.00;0.00;;;;;;;;;;6152165;23;20072;-58
2022/03/29 00:30:19;;;;;;;0.00;0.00;;;;;;;;;;6152310;23;20073;-59
2022/03/29 00:32:45;;;;;;;0.00;0.00;;;;;;;;;;6152908;23;20029;-59
2022/03/29 00:35:10;;;;;;;0.00;0.00;;;;;;;;;;6152391;23;20463;-59
2022/03/29 00:37:39;;;;;;;0.00;0.00;;;;;;;;;;6152500;23;20006;-59
2022/03/29 00:40:05;;;;;;;2.08;1.98;;;;;;;;;;6152174;23;20013;-58
2022/03/29 00:42:30;;;;;;;0.00;0.00;;;;;;;;;;6152571;23;20002;-58
2022/03/29 00:44:56;;;;;;;0.00;0.00;;;;;;;;;;6126011;23;20009;-58
2022/03/29 00:47:21;;;;;;;0.00;0.00;;;;;;;;;;6152700;23;19997;-57
2022/03/29 00:49:46;;;;;;;0.00;0.00;;;;;;;;;;6152722;23;19998;-59
2022/03/29 00:52:12;;;;;;;0.00;0.00;;;;;;;;;;6152516;23;20001;-58
2022/03/29 00:54:38;;;;;;;0.00;0.00;;;;;;;;;;6152992;23;19998;-59
2022/03/29 00:57:04;;;;;;;0.20;0.20;;;;;;;;;;6152006;23;20005;-58
2022/03/29 00:59:29;;;;;;;0.00;0.00;;;;;;;;;;6152507;23;20438;-57
2022/03/29 01:01:57;;;;;;;0.00;0.00;;;;;;;;;;6152280;23;20012;-58
2022/03/29 01:04:22;;;;;;;0.00;0.00;;;;;;;;;;6152755;23;20088;-57
2022/03/29 01:06:47;;;;;;;0.00;0.00;;;;;;;;;;6153014;23;19997;-59
2022/03/29 01:09:12;;;;;;;0.00;0.00;;;;;;;;;;6152088;23;19993;-59
2022/03/29 01:11:38;;;;;;;0.00;0.00;;;;;;;;;;6152425;23;20483;-57
2022/03/29 01:14:04;;;;;;;0.00;0.00;;;;;;;;;;6151937;23;20001;-57
2022/03/29 01:19:16;;;;;;;0.00;0.00;;;;;;;;;;6152225;23;20052;-57
2022/03/29 01:21:41;;;;;;;0.00;0.00;;;;;;;;;;6152736;23;20037;-58
2022/03/29 01:24:08;;;;;;;0.28;0.28;;;;;;;;;;6152011;23;20025;-59
2022/03/29 01:26:33;;;;;;;0.20;0.20;;;;;;;;;;6152223;23;20004;-58
2022/03/29 01:29:00;;;;;;;0.65;0.65;;;;;;;;;;6151354;23;20018;-58
2022/03/29 01:31:25;;;;;;;0.00;0.00;;;;;;;;;;6152599;23;20332;-58
2022/03/29 01:33:50;;;;;;;0.73;0.38;;;;;;;;;;6152787;23;19998;-59
2022/03/29 01:36:16;;;;;;;0.00;0.00;;;;;;;;;;6126014;23;20016;-58
2022/03/29 01:38:41;;;;;;;0.13;0.13;;;;;;;;;;6152086;23;20016;-58
2022/03/29 01:41:06;;;;;;;0.00;0.00;;;;;;;;;;6151722;23;20006;-59
2022/03/29 01:43:32;;;;;;;0.00;0.00;;;;;;;;;;6152071;23;20001;-58
2022/03/29 01:45:57;;;;;;;0.00;0.00;;;;;;;;;;6151666;23;20001;-60
2022/03/29 01:48:24;;;;;;;0.00;0.00;;;;;;;;;;6151857;23;19998;-58
2022/03/29 01:50:50;;;;;;;0.00;0.00;;;;;;;;;;6151943;23;20075;-58
2022/03/29 01:53:23;;;;;;;0.00;0.00;;;;;;;;;;6151007;23;20419;-57
2022/03/29 01:55:48;;;;;;;0.00;0.00;;;;;;;;;;6152067;23;20381;-58
2022/03/29 01:58:14;;;;;;;0.00;0.00;;;;;;;;;;6151440;23;20005;-57
2022/03/29 02:00:41;;;;;;;0.00;0.00;;;;;;;;;;6151279;23;20424;-57
2022/03/29 02:03:07;;;;;;;0.00;0.00;;;;;;;;;;6150985;23;20009;-58
2022/03/29 02:05:33;;;;;;;3.85;3.72;;;;;;;;;;6152091;23;20064;-56
2022/03/29 02:07:59;;;;;;;0.00;0.00;;;;;;;;;;6151517;23;20518;-58
2022/03/29 02:10:25;;;;;;;0.00;0.00;;;;;;;;;;6151946;23;20412;-56
2022/03/29 02:12:50;;;;;;;0.00;0.00;;;;;;;;;;6151534;23;20001;-58
2022/03/29 02:15:17;;;;;;;0.10;0.10;;;;;;;;;;6150970;23;20028;-58
2022/03/29 02:17:43;;;;;;;0.00;0.00;;;;;;;;;;6152066;23;20005;-56
2022/03/29 02:20:08;;;;;;;0.10;0.10;;;;;;;;;;6151178;23;20001;-57
2022/03/29 02:22:34;;;;;;;0.00;0.00;;;;;;;;;;6151374;23;20012;-57
2022/03/29 02:24:59;;;;;;;0.47;0.47;;;;;;;;;;6151259;23;20001;-57
2022/03/29 02:27:24;;;;;;;0.38;0.10;;;;;;;;;;6151935;23;20036;-57
2022/03/29 02:29:50;;;;;;;2.00;1.75;;;;;;;;;;6125268;23;20009;-56
2022/03/29 02:32:15;;;;;;;0.00;0.00;;;;;;;;;;6151218;23;20005;-57
2022/03/29 02:34:40;;;;;;;0.00;0.00;;;;;;;;;;6151831;23;20368;-57
2022/03/29 02:37:06;;;;;;;0.00;0.00;;;;;;;;;;6151814;23;20093;-57
2022/03/29 02:39:31;;;;;;;1.55;1.55;;;;;;;;;;6151633;23;20002;-58
2022/03/29 02:41:56;;;;;;;0.00;0.00;;;;;;;;;;6151806;23;20481;-57
2022/03/29 02:44:21;;;;;;;0.00;0.00;;;;;;;;;;6150806;23;20029;-57
2022/03/29 02:46:47;;;;;;;0.00;0.00;;;;;;;;;;6152007;23;20097;-57
2022/03/29 02:49:12;;;;;;;0.00;0.00;;;;;;;;;;6151667;23;20301;-57
2022/03/29 02:51:37;;;;;;;0.00;0.00;;;;;;;;;;6151485;23;20024;-56
2022/03/29 02:54:02;;;;;;;0.00;0.00;;;;;;;;;;6151002;23;20034;-58
2022/03/29 02:56:28;;;;;;;0.00;0.00;;;;;;;;;;6151864;23;20084;-57
2022/03/29 02:58:53;;;;;;;0.00;0.00;;;;;;;;;;6151215;23;20002;-56
2022/03/29 03:01:18;;;;;;;0.00;0.00;;;;;;;;;;6151251;23;20009;-55
2022/03/29 03:03:44;;;;;;;0.00;0.00;;;;;;;;;;6151602;23;20012;-56
2022/03/29 03:06:10;;;;;;;0.00;0.00;;;;;;;;;;6151165;23;20020;-57
2022/03/29 03:08:35;;;;;;;0.00;0.00;;;;;;;;;;6152002;23;20028;-57
2022/03/29 03:11:00;;;;;;;0.00;0.00;;;;;;;;;;6151137;23;20304;-57
2022/03/29 03:13:25;;;;;;;0.00;0.00;;;;;;;;;;6151461;23;20006;-54
2022/03/29 03:15:51;;;;;;;0.00;0.00;;;;;;;;;;6151288;23;20002;-56
2022/03/29 03:18:16;;;;;;;0.00;0.00;;;;;;;;;;6151361;23;20002;-56
2022/03/29 03:20:41;;;;;;;0.00;0.00;;;;;;;;;;6151367;23;20341;-58
2022/03/29 03:23:06;;;;;;;0.00;0.00;;;;;;;;;;6151217;23;20054;-57
2022/03/29 03:25:32;;;;;;;1.02;1.02;;;;;;;;;;6151790;23;20047;-57
2022/03/29 03:27:57;;;;;;;0.95;0.95;;;;;;;;;;6152013;23;20315;-57
2022/03/29 03:30:22;;;;;;;0.88;0.85;;;;;;;;;;6150579;23;20068;-56
2022/03/29 03:32:48;;;;;;;0.60;0.60;;;;;;;;;;6151760;23;20412;-57
2022/03/29 03:35:14;;;;;;;0.00;0.00;;;;;;;;;;6151289;23;20367;-57
2022/03/29 03:37:39;;;;;;;0.17;0.17;;;;;;;;;;6151737;23;20001;-55
2022/03/29 03:40:06;;;;;;;2.03;2.03;;;;;;;;;;6150904;23;20016;-56
2022/03/29 03:42:31;;;;;;;0.00;0.00;;;;;;;;;;6150984;23;19998;-56
2022/03/29 03:44:58;;;;;;;0.00;0.00;;;;;;;;;;6151077;23;20002;-57
2022/03/29 03:47:23;;;;;;;0.00;0.00;;;;;;;;;;6150808;23;19993;-57
2022/03/29 03:49:48;;;;;;;0.00;0.00;;;;;;;;;;6151027;23;20044;-54
2022/03/29 03:52:13;;;;;;;3.47;3.30;;;;;;;;;;6151432;23;20462;-56
2022/03/29 03:54:39;;;;;;;0.00;0.00;;;;;;;;;;6151318;23;20077;-57
2022/03/29 03:57:04;;;;;;;0.00;0.00;;;;;;;;;;6150989;23;19997;-58
2022/03/29 03:59:30;;;;;;;0.00;0.00;;;;;;;;;;6151019;23;20002;-56
2022/03/29 04:01:56;;;;;;;0.00;0.00;;;;;;;;;;6151380;23;20017;-55
2022/03/29 04:04:21;;;;;;;0.47;0.47;;;;;;;;;;6150957;23;20021;-56
2022/03/29 04:06:46;;;;;;;0.00;0.00;;;;;;;;;;6151292;23;20068;-55
2022/03/29 04:09:12;;;;;;;0.00;0.00;;;;;;;;;;6150795;23;20068;-56
2022/03/29 04:11:37;;;;;;;1.65;1.65;;;;;;;;;;6151741;23;19993;-57
2022/03/29 04:14:02;;;;;;;1.25;1.25;;;;;;;;;;6152824;23;19994;-55
2022/03/29 04:16:28;;;;;;;0.00;0.00;;;;;;;;;;6153474;23;20415;-56
2022/03/29 04:18:53;;;;;;;0.00;0.00;;;;;;;;;;6152808;23;20107;-56
2022/03/29 04:21:18;;;;;;;0.73;0.73;;;;;;;;;;6152777;23;20044;-56
2022/03/29 04:23:44;;;;;;;1.98;1.98;;;;;;;;;;6152677;23;20005;-56
2022/03/29 04:26:10;;;;;;;0.00;0.00;;;;;;;;;;6152573;23;20061;-55
2022/03/29 04:28:35;;;;;;;1.40;1.40;;;;;;;;;;6152952;23;20465;-56
2022/03/29 04:31:00;;;;;;;0.03;0.03;;;;;;;;;;6152947;23;20008;-55
2022/03/29 04:33:29;;;;;;;0.00;0.00;;;;;;;;;;6152312;23;20056;-56
2022/03/29 04:35:54;;;;;;;0.00;0.00;;;;;;;;;;6153301;23;20005;-56
2022/03/29 04:38:20;;;;;;;0.20;0.20;;;;;;;;;;6152620;23;20124;-57
2022/03/29 04:40:45;;;;;;;1.02;0.60;;;;;;;;;;6153390;23;20081;-56
2022/03/29 04:43:10;;;;;;;0.30;0.30;;;;;;;;;;6152487;23;20356;-54
2022/03/29 04:45:36;;;;;;;0.00;0.00;;;;;;;;;;6152714;23;20427;-54
2022/03/29 04:48:01;;;;;;;0.00;0.00;;;;;;;;;;6152565;23;20344;-55
2022/03/29 04:50:29;;;;;;;0.00;0.00;;;;;;;;;;6152494;23;19998;-55
2022/03/29 04:52:54;;;;;;;2.90;1.90;;;;;;;;;;6126394;23;19997;-55
2022/03/29 04:55:20;;;;;;;0.90;0.90;;;;;;;;;;6152525;23;20073;-56
2022/03/29 04:57:51;;;;;;;1.40;1.40;;;;;;;;;;6152431;23;20001;-56
2022/03/29 05:00:20;;;;;;;1.70;1.65;;;;;;;;;;6151755;23;20017;-57
2022/03/29 05:02:45;;;;;;;0.00;0.00;;;;;;;;;;6152337;23;20006;-55
2022/03/29 05:05:10;;;;;;;0.00;0.00;;;;;;;;;;6151989;23;20560;-56
2022/03/29 05:07:36;;;;;;;0.00;0.00;;;;;;;;;;6152746;23;20041;-55
2022/03/29 05:10:02;;;;;;;0.00;0.00;;;;;;;;;;6152264;23;20381;-52
2022/03/29 05:12:27;;;;;;;0.00;0.00;;;;;;;;;;6152058;23;20005;-56
2022/03/29 05:14:53;;;;;;;0.00;0.00;;;;;;;;;;6151389;23;20001;-56
2022/03/29 05:17:18;;;;;;;0.00;0.00;;;;;;;;;;6152093;23;20001;-57
2022/03/29 05:19:43;;;;;;;0.00;0.00;;;;;;;;;;6152575;23;20008;-56
2022/03/29 05:22:09;;;;;;;0.00;0.00;;;;;;;;;;6151866;23;20002;-57
2022/03/29 05:24:34;;;;;;;0.00;0.00;;;;;;;;;;6152420;23;20336;-56
2022/03/29 05:26:59;;;;;;;0.00;0.00;;;;;;;;;;6152794;23;19994;-55
2022/03/29 05:29:29;;;;;;;0.00;0.00;;;;;;;;;;6151402;23;20014;-55
2022/03/29 05:31:54;;;;;;;0.10;0.10;;;;;;;;;;6152359;23;20005;-56
2022/03/29 05:34:20;;;;;;;0.00;0.00;;;;;;;;;;6151705;23;20470;-55
2022/03/29 05:36:46;;;;;;;2.65;2.55;;;;;;;;;;6152300;23;20490;-57
2022/03/29 05:39:13;;;;;;;0.00;0.00;;;;;;;;;;6151958;23;20064;-56
2022/03/29 05:41:38;;;;;;;0.00;0.00;;;;;;;;;;6152285;23;20032;-56
2022/03/29 05:44:04;;;;;;;0.00;0.00;;;;;;;;;;6125531;23;20682;-57
2022/03/29 05:49:13;;;;;;;0.00;0.00;;;;;;;;;;6151295;23;20383;-54
2022/03/29 05:51:38;;;;;;;0.75;0.75;;;;;;;;;;6151533;23;20076;-56
2022/03/29 05:54:04;;;;;;;0.00;0.00;;;;;;;;;;6151363;23;20006;-55
2022/03/29 05:56:30;;;;;;;0.08;0.08;;;;;;;;;;6151161;23;20052;-55
2022/03/29 05:58:55;;;;;;;0.10;0.10;;;;;;;;;;6150997;23;20017;-59
2022/03/29 06:01:21;;;;;;;1.55;0.75;;;;;;;;;;6150944;23;20009;-57
2022/03/29 06:03:46;;;;;;;0.00;0.00;;;;;;;;;;6125095;23;20006;-57
2022/03/29 06:06:13;;;;;;;0.00;0.00;;;;;;;;;;6150647;23;20012;-55
2022/03/29 06:08:38;;;;;;;1.75;1.35;;;;;;;;;;6124590;23;20451;-56
2022/03/29 06:11:04;;;;;;;0.55;0.55;;;;;;;;;;6147724;23;19997;-57
2022/03/29 06:13:29;;;;;;;0.43;0.43;;;;;;;;;;6124803;23;19998;-56
2022/03/29 06:15:54;;;;;;;0.60;0.60;;;;;;;;;;6151436;23;20490;-57
2022/03/29 06:18:20;;;;;;;0.68;0.68;;;;;;;;;;6150735;23;20064;-57
2022/03/29 06:20:46;;;;;;;1.30;1.20;;;;;;;;;;6151556;23;20283;-56
2022/03/29 06:23:11;;;;;;;0.00;0.00;;;;;;;;;;6151168;23;20002;-56
2022/03/29 06:25:36;;;;;;;0.03;0.03;;;;;;;;;;6151290;23;20084;-58
2022/03/29 06:28:02;;;;;;;0.00;0.00;;;;;;;;;;6151820;23;20049;-57
2022/03/29 06:30:27;;;;;;;0.22;0.22;;;;;;;;;;6151148;23;20033;-58
2022/03/29 06:32:53;;;;;;;0.00;0.00;;;;;;;;;;6151752;23;19997;-59
2022/03/29 06:35:21;;;;;;;1.20;0.95;;;;;;;;;;6150554;23;20056;-57
2022/03/29 06:37:46;;;;;;;0.00;0.00;;;;;;;;;;6151051;23;20080;-57
2022/03/29 06:40:12;;;;;;;3.40;2.55;;;;;;;;;;6151023;23;20028;-57
2022/03/29 06:42:37;;;;;;;0.00;0.00;;;;;;;;;;6150906;23;20001;-57
2022/03/29 06:45:03;;;;;;;0.00;0.00;;;;;;;;;;6150938;23;20001;-58
2022/03/29 06:47:28;;;;;;;0.00;0.00;;;;;;;;;;6151402;23;20289;-56
2022/03/29 06:49:53;;;;;;;0.00;0.00;;;;;;;;;;6151479;23;20418;-57
2022/03/29 06:52:18;;;;;;;0.00;0.00;;;;;;;;;;6150905;23;20010;-57
2022/03/29 06:54:44;;;;;;;2.28;2.17;;;;;;;;;;6151210;23;19994;-57
2022/03/29 06:57:09;;;;;;;1.55;1.35;;;;;;;;;;6150586;23;20001;-58
2022/03/29 06:59:34;;;;;;;5.63;5.13;;;;;;;;;;6150899;23;20002;-56
2022/03/29 07:02:00;;;;;;;7.63;4.55;;;;;;;;;;6150975;23;20028;-57
2022/03/29 07:04:25;;;;;;;0.38;0.38;;;;;;;;;;6150371;23;20000;-57
2022/03/29 07:06:50;;;;;;;1.52;1.42;;;;;;;;;;6150924;23;20004;-57
2022/03/29 07:12:00;;;;;;;0.98;0.98;;;;;;;;;;6150830;23;20063;-57
2022/03/29 07:14:25;;;;;;;3.63;1.85;;;;;;;;;;6150256;23;19998;-59
2022/03/29 07:16:50;;;;;;;0.73;0.73;;;;;;;;;;6151319;23;20001;-57
2022/03/29 07:19:16;;;;;;;0.00;0.00;;;;;;;;;;6150893;23;20006;-57
2022/03/29 07:21:43;;;;;;;0.00;0.00;;;;;;;;;;6151989;23;20001;-57
2022/03/29 07:24:09;;;;;;;0.32;0.32;;;;;;;;;;6151183;23;20002;-57
2022/03/29 07:26:35;;;;;;;0.00;0.00;;;;;;;;;;6151141;23;20005;-56
2022/03/29 07:29:01;;;;;;;1.58;0.98;;;;;;;;;;6150439;23;20724;-56
2022/03/29 07:31:26;;;;;;;2.42;2.22;;;;;;;;;;6145841;23;20020;-57
2022/03/29 07:33:51;;;;;;;1.48;1.45;;;;;;;;;;6150979;23;20005;-58
2022/03/29 07:36:16;;;;;;;0.00;0.00;;;;;;;;;;6150872;23;20004;-57
2022/03/29 07:38:42;;;;;;;17.45;3.20;;;;;;;;;;6151671;23;20353;-57
2022/03/29 07:41:07;;;;;;;2.72;2.33;;;;;;;;;;6149329;23;20033;-57
2022/03/29 07:43:32;;;;;;;4.10;3.05;;;;;;;;;;6151040;23;20360;-57
2022/03/29 07:45:58;;;;;;;11.60;4.32;;;;;;;;;;6152198;23;20690;-57
2022/03/29 07:48:23;;;;;;;1.17;0.40;;;;;;;;;;6152764;23;20017;-56
2022/03/29 07:50:49;;;;;;;0.95;0.95;;;;;;;;;;6152846;23;19997;-56
2022/03/29 07:53:14;;;;;;;0.00;0.00;;;;;;;;;;6152195;23;20182;-56
2022/03/29 07:55:40;;;;;;;0.55;0.55;;;;;;;;;;6151966;23;20086;-56
2022/03/29 07:58:05;;;;;;;0.00;0.00;;;;;;;;;;6152871;23;20024;-56
2022/03/29 08:00:35;;;;;;;0.40;0.40;;;;;;;;;;6151847;23;20012;-59
2022/03/29 08:03:07;;;;;;;0.00;0.00;;;;;;;;;;6152148;23;20005;-59
2022/03/29 08:05:33;;;;;;;0.03;0.03;;;;;;;;;;6151498;23;20008;-60
2022/03/29 08:07:59;;;;;;;1.58;1.48;;;;;;;;;;6151167;23;20001;-59
2022/03/29 08:10:25;;;;;;;1.65;1.65;;;;;;;;;;6151102;23;20072;-59
2022/03/29 08:12:51;;;;;;;0.15;0.15;;;;;;;;;;6152085;23;20002;-59
2022/03/29 08:15:16;;;;;;;0.20;0.20;;;;;;;;;;6151530;23;20370;-59
2022/03/29 08:17:41;;;;;;;2.85;1.95;;;;;;;;;;6152273;23;20024;-60
2022/03/29 08:20:07;;;;;;;0.00;0.00;;;;;;;;;;6152923;23;20001;-59
2022/03/29 08:22:33;;;;;;;7.03;3.22;;;;;;;;;;6151883;23;20075;-59
2022/03/29 08:25:01;;;;;;;0.00;0.00;;;;;;;;;;6152393;23;20061;-58
2022/03/29 08:27:26;;;;;;;0.03;0.03;;;;;;;;;;6151816;23;20339;-59
2022/03/29 08:29:51;;;;;;;0.00;0.00;;;;;;;;;;6152112;23;20009;-58
2022/03/29 08:32:17;;;;;;;1.45;1.38;;;;;;;;;;6151867;23;20388;-58
2022/03/29 08:34:42;;;;;;;0.40;0.40;;;;;;;;;;6152326;23;19997;-59
2022/03/29 08:37:07;;;;;;;3.47;3.20;;;;;;;;;;6151289;23;20533;-58
2022/03/29 08:39:32;;;;;;;1.65;1.10;;;;;;;;;;6151929;23;19994;-58
2022/03/29 08:42:10;;;;;;;0.43;0.43;;;;;;;;;;6152638;23;19997;-57
2022/03/29 08:44:37;;;;;;;3.10;2.22;;;;;;;;;;6150953;23;19990;-59
2022/03/29 08:47:05;;;;;;;2.30;2.22;;;;;;;;;;6152170;23;20020;-60
2022/03/29 08:49:31;;;;;;;2.92;1.50;;;;;;;;;;6151882;23;20077;-60
2022/03/29 08:51:57;;;;;;;1.08;1.08;;;;;;;;;;6152463;23;20004;-59
2022/03/29 08:54:22;;;;;;;0.28;0.28;;;;;;;;;;6151724;23;20080;-59
2022/03/29 08:56:47;;;;;;;1.70;1.60;;;;;;;;;;6151922;23;20002;-59
2022/03/29 08:59:15;;;;;;;1.35;1.30;;;;;;;;;;6151854;23;20442;-59
2022/03/29 09:01:40;;;;;;;3.30;3.13;;;;;;;;;;6152242;23;20012;-59
2022/03/29 09:04:08;;;;;;;1.27;1.27;;;;;;;;;;6152149;23;20009;-60
2022/03/29 09:06:56;;;;;;;0.30;0.30;;;;;;;;;;6151191;23;20001;-60
2022/03/29 09:09:47;;;;;;;0.13;0.13;;;;;;;;;;6151405;23;20326;-60
2022/03/29 09:12:32;;;;;;;3.38;3.17;;;;;;;;;;6146129;23;20060;-59
2022/03/29 09:14:59;;;;;;;3.05;2.60;;;;;;;;;;6151774;23;20073;-60
2022/03/29 09:17:26;;;;;;;0.30;0.30;;;;;;;;;;6125257;23;20305;-61
2022/03/29 09:19:51;;;;;;;0.00;0.00;;;;;;;;;;6152023;23;20006;-60
2022/03/29 09:22:35;;;;;;;0.00;0.00;;;;;;;;;;6151853;23;20032;-58
2022/03/29 09:25:00;;;;;;;3.28;3.13;;;;;;;;;;6151718;23;20060;-59
2022/03/29 09:27:26;;;;;;;0.88;0.88;;;;;;;;;;6151106;23;20431;-60
2022/03/29 09:30:05;;;;;;;0.00;0.00;;;;;;;;;;6151381;23;20025;-60
2022/03/29 09:32:30;;;;;;;0.10;0.10;;;;;;;;;;6151782;23;19997;-59
2022/03/29 09:35:08;;;;;;;0.17;0.17;;;;;;;;;;6151771;23;20418;-60
2022/03/29 09:37:34;;;;;;;0.82;0.82;;;;;;;;;;6125227;23;20115;-59
2022/03/29 09:40:00;;;;;;;0.00;0.00;;;;;;;;;;6151935;23;19998;-59
2022/03/29 09:42:26;;;;;;;0.82;0.82;;;;;;;;;;6151835;23;20506;-60
2022/03/29 09:44:54;;;;;;;1.25;1.25;;;;;;;;;;6151912;23;20005;-59
2022/03/29 09:47:21;;;;;;;1.20;1.00;;;;;;;;;;6151367;23;20430;-60
2022/03/29 09:49:52;;;;;;;0.55;0.55;;;;;;;;;;6152000;23;20006;-59
2022/03/29 09:52:18;;;;;;;0.98;0.65;;;;;;;;;;6151817;23;20101;-59
2022/03/29 09:55:02;;;;;;;8.48;8.15;;;;;;;;;;6151349;23;20355;-59
2022/03/29 09:57:47;;;;;;;0.00;0.00;;;;;;;;;;6151358;23;20457;-59
2022/03/29 10:00:14;;;;;;;3.83;3.53;;;;;;;;;;6151846;23;20012;-60
2022/03/29 10:02:45;;;;;;;1.88;1.77;;;;;;;;;;6151920;23;20148;-60
2022/03/29 10:05:10;;;;;;;6.47;3.90;;;;;;;;;;6152097;23;19997;-57
2022/03/29 10:07:47;;;;;;;3.35;3.05;;;;;;;;;;6151447;23;20714;-60
2022/03/29 10:10:12;;;;;;;7.60;5.32;;;;;;;;;;6151728;23;20001;-60
2022/03/29 10:12:38;;;;;;;1.10;1.10;;;;;;;;;;6151515;23;19998;-59
2022/03/29 10:15:05;;;;;;;4.82;2.80;;;;;;;;;;6151980;23;20001;-58
2022/03/29 10:17:30;;;;;;;0.22;0.22;;;;;;;;;;6151476;23;19997;-58
2022/03/29 10:19:57;;;;;;;0.00;0.00;;;;;;;;;;6152113;23;20453;-59
2022/03/29 10:22:25;;;;;;;0.30;0.30;;;;;;;;;;6151450;23;20353;-59
2022/03/29 10:24:51;;;;;;;5.57;2.83;;;;;;;;;;6150792;23;20540;-59
2022/03/29 10:27:17;;;;;;;0.00;0.00;;;;;;;;;;6151425;23;20029;-59
2022/03/29 10:29:42;;;;;;;1.60;0.88;;;;;;;;;;6150582;23;20017;-59
2022/03/29 10:32:07;;;;;;;0.47;0.47;;;;;;;;;;6124421;23;20709;-58
2022/03/29 10:34:42;;;;;;;2.45;2.25;;;;;;;;;;6150650;23;20374;-58
2022/03/29 10:37:12;;;;;;;6.10;3.40;;;;;;;;;;6151246;23;20137;-59
2022/03/29 10:39:39;;;;;;;0.50;0.50;;;;;;;;;;6150769;23;20001;-58
2022/03/29 10:42:25;;;;;;;3.50;2.30;;;;;;;;;;6151168;23;20068;-59
2022/03/29 10:44:57;;;;;;;0.77;0.77;;;;;;;;;;6150785;23;20001;-58
2022/03/29 10:47:26;;;;;;;2.03;1.55;;;;;;;;;;6150580;23;20000;-59
2022/03/29 10:49:51;;;;;;;3.40;3.10;;;;;;;;;;6151147;23;20044;-59
2022/03/29 10:52:20;;;;;;;2.97;2.88;;;;;;;;;;6124384;23;20001;-59
2022/03/29 10:54:45;;;;;;;5.45;5.05;;;;;;;;;;6151278;23;19997;-60
2022/03/29 10:57:14;;;;;;;1.17;1.17;;;;;;;;;;6150856;23;20332;-59
2022/03/29 10:59:39;;;;;;;6.20;5.35;;;;;;;;;;6151005;23;19998;-59
2022/03/29 11:02:11;;;;;;;1.63;1.52;;;;;;;;;;6149719;23;20008;-58
2022/03/29 11:04:37;;;;;;;7.10;1.63;;;;;;;;;;6124370;23;20010;-59
2022/03/29 11:07:05;;;;;;;5.88;2.45;;;;;;;;;;6150580;23;20041;-59
2022/03/29 11:09:31;;;;;;;1.00;1.00;;;;;;;;;;6124271;23;20098;-57
2022/03/29 11:11:56;;;;;;;1.60;1.55;;;;;;;;;;6151234;23;20005;-58
2022/03/29 11:14:33;;;;;;;3.70;3.42;;;;;;;;;;6150599;23;20002;-58
2022/03/29 11:17:08;;;;;;;0.28;0.28;;;;;;;;;;6150295;23;20009;-59
2022/03/29 11:19:46;;;;;;;0.00;0.00;;;;;;;;;;6150197;23;20074;-60
2022/03/29 11:22:29;;;;;;;0.00;0.00;;;;;;;;;;6152945;23;20092;-59
2022/03/29 11:25:22;;;;;;;0.03;0.03;;;;;;;;;;6152535;23;20002;-59
2022/03/29 11:27:48;;;;;;;0.47;0.47;;;;;;;;;;6108029;23;20005;-59
2022/03/29 11:30:14;;;;;;;0.00;0.00;;;;;;;;;;6152095;23;20451;-59
2022/03/29 11:32:40;;;;;;;0.85;0.85;;;;;;;;;;6152238;23;20006;-58
2022/03/29 11:35:07;;;;;;;3.65;1.70;;;;;;;;;;6152652;23;20013;-58
2022/03/29 11:37:33;;;;;;;0.00;0.00;;;;;;;;;;6151862;23;20419;-60
2022/03/29 11:40:00;;;;;;;0.00;0.00;;;;;;;;;;6152471;23;20021;-57
2022/03/29 11:42:41;;;;;;;1.55;0.65;;;;;;;;;;6151953;23;20012;-59
2022/03/29 11:45:06;;;;;;;0.00;0.00;;;;;;;;;;6152788;23;20001;-59
2022/03/29 11:47:32;;;;;;;0.00;0.00;;;;;;;;;;6152052;23;20356;-58
2022/03/29 11:49:57;;;;;;;1.90;0.80;;;;;;;;;;6152717;23;20044;-59
2022/03/29 11:52:31;;;;;;;0.08;0.08;;;;;;;;;;6151673;23;20082;-59
2022/03/29 11:54:56;;;;;;;2.13;2.13;;;;;;;;;;6152350;23;20102;-59
2022/03/29 11:57:25;;;;;;;1.40;1.33;;;;;;;;;;6125797;23;20431;-59
2022/03/29 11:59:51;;;;;;;0.00;0.00;;;;;;;;;;6151567;23;20073;-59
2022/03/29 12:02:21;;;;;;;2.40;2.20;;;;;;;;;;6151926;23;20006;-59
2022/03/29 12:04:47;;;;;;;0.80;0.80;;;;;;;;;;6152007;23;20010;-58
2022/03/29 12:07:14;;;;;;;0.00;0.00;;;;;;;;;;6152849;23;20435;-59
2022/03/29 12:09:44;;;;;;;0.98;0.98;;;;;;;;;;6151550;23;20033;-58
2022/03/29 12:12:10;;;;;;;0.00;0.00;;;;;;;;;;6152228;23;20056;-58
2022/03/29 12:14:35;;;;;;;0.00;0.00;;;;;;;;;;6151657;23;19997;-58
2022/03/29 12:17:03;;;;;;;0.00;0.00;;;;;;;;;;6151821;23;20009;-57
2022/03/29 12:19:29;;;;;;;0.00;0.00;;;;;;;;;;6151299;23;20002;-58
2022/03/29 12:22:00;;;;;;;0.22;0.22;;;;;;;;;;6149885;23;20012;-58
2022/03/29 12:24:30;;;;;;;0.32;0.28;;;;;;;;;;6151326;23;20008;-58
2022/03/29 12:27:04;;;;;;;0.00;0.00;;;;;;;;;;6152004;23;20088;-58
2022/03/29 12:29:29;;;;;;;0.00;0.00;;;;;;;;;;6151299;23;20040;-59
2022/03/29 12:31:55;;;;;;;0.00;0.00;;;;;;;;;;6151263;23;20002;-60
2022/03/29 12:34:24;;;;;;;0.00;0.00;;;;;;;;;;6150402;23;20057;-58
2022/03/29 12:36:52;;;;;;;0.00;0.00;;;;;;;;;;6151827;23;20036;-58
2022/03/29 12:39:18;;;;;;;0.98;0.98;;;;;;;;;;6151836;23;20064;-58
2022/03/29 12:41:53;;;;;;;0.00;0.00;;;;;;;;;;6151547;23;20001;-59
2022/03/29 12:44:37;;;;;;;15.23;4.18;;;;;;;;;;6151651;23;20001;-58
2022/03/29 12:47:02;;;;;;;2.05;1.95;;;;;;;;;;6124450;23;20005;-58
2022/03/29 12:49:28;;;;;;;0.00;0.00;;;;;;;;;;6125256;23;20098;-59
2022/03/29 12:51:55;;;;;;;0.00;0.00;;;;;;;;;;6151321;23;20442;-58
2022/03/29 12:54:20;;;;;;;0.00;0.00;;;;;;;;;;6151783;23;20004;-58
2022/03/29 12:56:46;;;;;;;0.00;0.00;;;;;;;;;;6151432;23;20490;-58
2022/03/29 12:59:28;;;;;;;1.90;0.50;;;;;;;;;;6150937;23;20005;-58
2022/03/29 13:02:20;;;;;;;0.85;0.60;;;;;;;;;;6151452;23;20013;-59
2022/03/29 13:04:46;;;;;;;0.00;0.00;;;;;;;;;;6145577;23;20114;-58
2022/03/29 13:07:30;;;;;;;0.00;0.00;;;;;;;;;;6151504;23;20080;-60
2022/03/29 13:10:10;;;;;;;0.00;0.00;;;;;;;;;;6151869;23;20031;-59
2022/03/29 13:12:50;;;;;;;0.00;0.00;;;;;;;;;;6125394;23;20379;-59
2022/03/29 13:15:34;;;;;;;0.00;0.00;;;;;;;;;;6151219;23;20001;-58
2022/03/29 13:17:59;;;;;;;2.28;1.55;;;;;;;;;;6151564;23;20001;-59
2022/03/29 13:20:24;;;;;;;0.00;0.00;;;;;;;;;;6151100;23;20076;-58
2022/03/29 13:22:50;;;;;;;0.00;0.00;;;;;;;;;;6151272;23;19997;-58
2022/03/29 13:25:30;;;;;;;0.00;0.00;;;;;;;;;;6151391;23;20005;-58
2022/03/29 13:27:55;;;;;;;0.47;0.47;;;;;;;;;;6151571;23;20051;-59
2022/03/29 13:30:21;;;;;;;0.80;0.80;;;;;;;;;;6151057;23;20581;-58
2022/03/29 13:32:46;;;;;;;0.00;0.00;;;;;;;;;;6151496;23;20016;-58
2022/03/29 13:35:11;;;;;;;0.40;0.40;;;;;;;;;;6151209;23;20714;-57
2022/03/29 13:37:37;;;;;;;0.00;0.00;;;;;;;;;;6150564;23;20225;-57
2022/03/29 13:40:03;;;;;;;0.00;0.00;;;;;;;;;;6151561;23;20041;-57
2022/03/29 13:42:28;;;;;;;0.95;0.43;;;;;;;;;;6151192;23;20006;-58
2022/03/29 13:44:59;;;;;;;0.00;0.00;;;;;;;;;;6151144;23;20001;-59
2022/03/29 13:47:24;;;;;;;0.10;0.10;;;;;;;;;;6150076;23;20004;-58
2022/03/29 13:49:52;;;;;;;0.57;0.45;;;;;;;;;;6151259;23;20001;-58
2022/03/29 13:52:18;;;;;;;0.30;0.30;;;;;;;;;;6124767;23;20005;-58
2022/03/29 13:54:43;;;;;;;0.00;0.00;;;;;;;;;;6149769;23;20426;-57
2022/03/29 13:57:08;;;;;;;0.00;0.00;;;;;;;;;;6150990;23;20040;-57
2022/03/29 13:59:38;;;;;;;0.68;0.68;;;;;;;;;;6150791;23;20085;-57
2022/03/29 14:02:03;;;;;;;0.00;0.00;;;;;;;;;;6150968;23;20439;-58
2022/03/29 14:04:28;;;;;;;0.40;0.13;;;;;;;;;;6124037;23;20012;-58
2022/03/29 14:06:54;;;;;;;0.00;0.00;;;;;;;;;;6150726;23;19998;-57
2022/03/29 14:09:19;;;;;;;0.05;0.05;;;;;;;;;;6150542;23;19994;-57
2022/03/29 14:11:45;;;;;;;0.00;0.00;;;;;;;;;;6150630;23;20032;-57
2022/03/29 14:14:10;;;;;;;0.25;0.25;;;;;;;;;;6150948;23;19997;-58
2022/03/29 14:16:38;;;;;;;0.00;0.00;;;;;;;;;;6150382;23;20008;-58
2022/03/29 14:19:04;;;;;;;0.00;0.00;;;;;;;;;;6151220;23;20225;-58
2022/03/29 14:21:35;;;;;;;0.00;0.00;;;;;;;;;;6150302;23;20004;-58
2022/03/29 14:24:00;;;;;;;0.55;0.55;;;;;;;;;;6150539;23;20008;-59
2022/03/29 14:26:29;;;;;;;0.88;0.45;;;;;;;;;;6150710;23;20013;-59
2022/03/29 14:28:54;;;;;;;0.00;0.00;;;;;;;;;;6118442;23;20400;-59
2022/03/29 14:31:19;;;;;;;0.00;0.00;;;;;;;;;;6118150;23;20009;-59
2022/03/29 14:33:47;;;;;;;0.20;0.20;;;;;;;;;;6119955;23;20555;-58
2022/03/29 14:36:13;;;;;;;0.03;0.03;;;;;;;;;;6121083;23;20002;-58
2022/03/29 14:38:38;;;;;;;0.10;0.10;;;;;;;;;;6118861;23;20364;-58
2022/03/29 14:41:03;;;;;;;0.38;0.38;;;;;;;;;;6121256;23;20006;-58
2022/03/29 14:43:29;;;;;;;0.00;0.00;;;;;;;;;;6121179;23;20009;-60
2022/03/29 14:46:00;;;;;;;0.00;0.00;;;;;;;;;;6120920;23;20140;-58
2022/03/29 14:48:25;;;;;;;0.00;0.00;;;;;;;;;;6119609;23;20456;-59
2022/03/29 14:50:50;;;;;;;0.00;0.00;;;;;;;;;;6120289;23;20040;-57